sensor_id;sensor_type;location;lat;lon;timestamp;temperature;humidity
15625;DHT22;7912;51.376;6.126;2023-07-31T00:00:56;19.80;99.90
15625;DHT22;7912;51.376;6.126;2023-07-31T00:03:23;19.90;99.90
15625;DHT22;7912;51.376;6.126;2023-07-31T00:05:53;19.90;99.90
15625;DHT22;7912;51.376;6.126;2023-07-31T00:08:20;19.90;99.90
15625;DHT22;7912;51.376;6.126;2023-07-31T00:10:51;19.90;99.90
15625;DHT22;7912;51.376;6.126;2023-07-31T00:13:19;19.90;99.90
15625;DHT22;7912;51.376;6.126;2023-07-31T00:15:47;19.90;99.90
15625;DHT22;7912;51.376;6.126;2023-07-31T00:18:15;19.90;99.90
15625;DHT22;7912;51.376;6.126;2023-07-31T00:20:42;19.90;99.90
15625;DHT22;7912;51.376;6.126;2023-07-31T00:23:09;19.90;99.90
15625;DHT22;7912;51.376;6.126;2023-07-31T00:25:37;19.90;99.90
15625;DHT22;7912;51.376;6.126;2023-07-31T00:28:04;19.90;99.90
15625;DHT22;7912;51.376;6.126;2023-07-31T00:30:34;20.00;99.90
15625;DHT22;7912;51.376;6.126;2023-07-31T00:33:02;19.90;99.90
15625;DHT22;7912;51.376;6.126;2023-07-31T00:35:29;20.00;99.90
15625;DHT22;7912;51.376;6.126;2023-07-31T00:37:58;20.00;99.90
15625;DHT22;7912;51.376;6.126;2023-07-31T00:40:25;20.00;99.90
15625;DHT22;7912;51.376;6.126;2023-07-31T00:42:53;19.90;99.90
15625;DHT22;7912;51.376;6.126;2023-07-31T00:45:21;20.00;99.90
15625;DHT22;7912;51.376;6.126;2023-07-31T00:47:50;20.00;99.90
15625;DHT22;7912;51.376;6.126;2023-07-31T00:50:17;19.90;99.90
15625;DHT22;7912;51.376;6.126;2023-07-31T00:52:45;19.90;99.90
15625;DHT22;7912;51.376;6.126;2023-07-31T00:55:13;19.90;99.90
15625;DHT22;7912;51.376;6.126;2023-07-31T00:57:41;20.00;99.90
15625;DHT22;7912;51.376;6.126;2023-07-31T01:00:09;20.00;99.90
15625;DHT22;7912;51.376;6.126;2023-07-31T01:02:37;20.00;99.90
15625;DHT22;7912;51.376;6.126;2023-07-31T01:05:08;20.00;99.90
15625;DHT22;7912;51.376;6.126;2023-07-31T01:07:56;20.00;99.90
15625;DHT22;7912;51.376;6.126;2023-07-31T01:10:45;20.00;99.90
15625;DHT22;7912;51.376;6.126;2023-07-31T01:13:21;20.00;99.90
15625;DHT22;7912;51.376;6.126;2023-07-31T01:15:50;20.00;99.90
15625;DHT22;7912;51.376;6.126;2023-07-31T01:18:17;20.00;99.90
15625;DHT22;7912;51.376;6.126;2023-07-31T01:20:53;20.00;99.90
15625;DHT22;7912;51.376;6.126;2023-07-31T01:29:00;20.00;99.90
15625;DHT22;7912;51.376;6.126;2023-07-31T01:31:35;20.00;99.90
15625;DHT22;7912;51.376;6.126;2023-07-31T01:34:04;19.90;99.90
15625;DHT22;7912;51.376;6.126;2023-07-31T01:36:33;20.00;99.90
15625;DHT22;7912;51.376;6.126;2023-07-31T01:39:01;20.00;99.90
15625;DHT22;7912;51.376;6.126;2023-07-31T01:41:29;19.90;99.90
15625;DHT22;7912;51.376;6.126;2023-07-31T01:43:56;19.90;99.90
15625;DHT22;7912;51.376;6.126;2023-07-31T01:46:24;19.90;99.90
15625;DHT22;7912;51.376;6.126;2023-07-31T01:48:51;19.90;99.90
15625;DHT22;7912;51.376;6.126;2023-07-31T01:51:18;19.90;99.90
15625;DHT22;7912;51.376;6.126;2023-07-31T01:53:46;19.90;99.90
15625;DHT22;7912;51.376;6.126;2023-07-31T01:56:13;19.90;99.90
15625;DHT22;7912;51.376;6.126;2023-07-31T01:58:41;19.90;99.90
15625;DHT22;7912;51.376;6.126;2023-07-31T02:01:08;19.90;99.90
15625;DHT22;7912;51.376;6.126;2023-07-31T02:03:35;19.90;99.90
15625;DHT22;7912;51.376;6.126;2023-07-31T02:06:05;19.90;99.90
15625;DHT22;7912;51.376;6.126;2023-07-31T02:08:32;19.90;99.90
15625;DHT22;7912;51.376;6.126;2023-07-31T02:10:59;19.90;99.90
15625;DHT22;7912;51.376;6.126;2023-07-31T02:13:27;19.90;99.90
15625;DHT22;7912;51.376;6.126;2023-07-31T02:15:54;19.90;99.90
15625;DHT22;7912;51.376;6.126;2023-07-31T02:18:22;19.90;99.90
15625;DHT22;7912;51.376;6.126;2023-07-31T02:20:50;19.90;99.90
15625;DHT22;7912;51.376;6.126;2023-07-31T02:23:23;19.80;99.90
15625;DHT22;7912;51.376;6.126;2023-07-31T02:25:50;19.80;99.90
15625;DHT22;7912;51.376;6.126;2023-07-31T02:28:18;19.80;99.90
15625;DHT22;7912;51.376;6.126;2023-07-31T02:30:45;19.80;99.90
15625;DHT22;7912;51.376;6.126;2023-07-31T02:33:15;19.80;99.90
15625;DHT22;7912;51.376;6.126;2023-07-31T02:35:45;19.80;99.90
15625;DHT22;7912;51.376;6.126;2023-07-31T02:38:13;19.80;99.90
15625;DHT22;7912;51.376;6.126;2023-07-31T02:40:40;19.80;99.90
15625;DHT22;7912;51.376;6.126;2023-07-31T02:43:08;19.80;99.90
15625;DHT22;7912;51.376;6.126;2023-07-31T02:45:36;19.90;99.90
15625;DHT22;7912;51.376;6.126;2023-07-31T02:48:05;19.80;99.90
15625;DHT22;7912;51.376;6.126;2023-07-31T02:50:32;19.90;99.90
15625;DHT22;7912;51.376;6.126;2023-07-31T02:53:00;19.90;99.90
15625;DHT22;7912;51.376;6.126;2023-07-31T02:55:29;19.90;99.90
15625;DHT22;7912;51.376;6.126;2023-07-31T02:57:56;19.90;99.90
15625;DHT22;7912;51.376;6.126;2023-07-31T03:00:25;19.90;99.90
15625;DHT22;7912;51.376;6.126;2023-07-31T03:02:52;19.90;99.90
15625;DHT22;7912;51.376;6.126;2023-07-31T03:05:19;19.90;99.90
15625;DHT22;7912;51.376;6.126;2023-07-31T03:07:47;19.90;99.90
15625;DHT22;7912;51.376;6.126;2023-07-31T03:10:14;19.90;99.90
15625;DHT22;7912;51.376;6.126;2023-07-31T03:12:42;19.90;99.90
15625;DHT22;7912;51.376;6.126;2023-07-31T03:15:09;20.00;99.90
15625;DHT22;7912;51.376;6.126;2023-07-31T03:17:37;20.00;99.90
15625;DHT22;7912;51.376;6.126;2023-07-31T03:20:05;20.00;99.90
15625;DHT22;7912;51.376;6.126;2023-07-31T03:22:32;20.00;99.90
15625;DHT22;7912;51.376;6.126;2023-07-31T03:25:02;20.00;99.90
15625;DHT22;7912;51.376;6.126;2023-07-31T03:27:30;20.00;99.90
15625;DHT22;7912;51.376;6.126;2023-07-31T03:29:58;20.00;99.90
15625;DHT22;7912;51.376;6.126;2023-07-31T03:32:26;20.10;99.90
15625;DHT22;7912;51.376;6.126;2023-07-31T03:34:53;20.10;99.90
15625;DHT22;7912;51.376;6.126;2023-07-31T03:37:20;20.10;99.90
15625;DHT22;7912;51.376;6.126;2023-07-31T03:39:51;20.10;99.90
15625;DHT22;7912;51.376;6.126;2023-07-31T03:42:21;20.10;99.90
15625;DHT22;7912;51.376;6.126;2023-07-31T03:44:49;20.10;99.90
15625;DHT22;7912;51.376;6.126;2023-07-31T03:47:18;20.10;99.90
15625;DHT22;7912;51.376;6.126;2023-07-31T03:49:45;20.10;99.90
15625;DHT22;7912;51.376;6.126;2023-07-31T03:52:13;20.20;99.90
15625;DHT22;7912;51.376;6.126;2023-07-31T03:54:40;20.20;99.90
15625;DHT22;7912;51.376;6.126;2023-07-31T03:57:07;20.20;99.90
15625;DHT22;7912;51.376;6.126;2023-07-31T03:59:35;20.20;99.90
15625;DHT22;7912;51.376;6.126;2023-07-31T04:02:02;20.10;99.90
15625;DHT22;7912;51.376;6.126;2023-07-31T04:04:29;20.20;99.90
15625;DHT22;7912;51.376;6.126;2023-07-31T04:07:00;20.20;99.90
15625;DHT22;7912;51.376;6.126;2023-07-31T04:09:27;20.10;99.90
15625;DHT22;7912;51.376;6.126;2023-07-31T04:11:55;20.20;99.90
15625;DHT22;7912;51.376;6.126;2023-07-31T04:14:23;20.20;99.90
15625;DHT22;7912;51.376;6.126;2023-07-31T04:16:50;20.20;99.90
15625;DHT22;7912;51.376;6.126;2023-07-31T04:19:17;20.20;99.90
15625;DHT22;7912;51.376;6.126;2023-07-31T04:21:45;20.20;99.90
15625;DHT22;7912;51.376;6.126;2023-07-31T04:24:12;20.20;99.90
15625;DHT22;7912;51.376;6.126;2023-07-31T04:26:39;20.20;99.90
15625;DHT22;7912;51.376;6.126;2023-07-31T04:29:07;20.20;99.90
15625;DHT22;7912;51.376;6.126;2023-07-31T04:31:35;20.30;99.90
15625;DHT22;7912;51.376;6.126;2023-07-31T04:34:05;20.30;99.90
15625;DHT22;7912;51.376;6.126;2023-07-31T04:36:34;20.30;99.90
15625;DHT22;7912;51.376;6.126;2023-07-31T04:39:02;20.30;99.90
15625;DHT22;7912;51.376;6.126;2023-07-31T04:41:29;20.40;99.90
15625;DHT22;7912;51.376;6.126;2023-07-31T04:43:57;20.40;99.90
15625;DHT22;7912;51.376;6.126;2023-07-31T04:46:24;20.40;99.90
15625;DHT22;7912;51.376;6.126;2023-07-31T04:48:51;20.40;99.90
15625;DHT22;7912;51.376;6.126;2023-07-31T04:51:19;20.50;99.90
15625;DHT22;7912;51.376;6.126;2023-07-31T04:53:48;20.40;99.90
15625;DHT22;7912;51.376;6.126;2023-07-31T04:56:16;20.50;99.90
15625;DHT22;7912;51.376;6.126;2023-07-31T04:58:43;20.50;99.90
15625;DHT22;7912;51.376;6.126;2023-07-31T05:01:10;20.50;99.90
15625;DHT22;7912;51.376;6.126;2023-07-31T05:03:38;20.50;99.90
15625;DHT22;7912;51.376;6.126;2023-07-31T05:06:06;20.60;99.90
15625;DHT22;7912;51.376;6.126;2023-07-31T05:08:33;20.60;99.90
15625;DHT22;7912;51.376;6.126;2023-07-31T05:11:01;20.60;99.90
15625;DHT22;7912;51.376;6.126;2023-07-31T05:13:29;20.60;99.90
15625;DHT22;7912;51.376;6.126;2023-07-31T05:15:56;20.70;99.90
15625;DHT22;7912;51.376;6.126;2023-07-31T05:18:27;20.70;99.90
15625;DHT22;7912;51.376;6.126;2023-07-31T05:20:55;20.70;99.90
15625;DHT22;7912;51.376;6.126;2023-07-31T05:23:22;20.70;99.90
15625;DHT22;7912;51.376;6.126;2023-07-31T05:25:49;20.80;99.90
15625;DHT22;7912;51.376;6.126;2023-07-31T05:28:17;20.80;99.90
15625;DHT22;7912;51.376;6.126;2023-07-31T05:30:44;20.80;99.90
15625;DHT22;7912;51.376;6.126;2023-07-31T05:33:12;20.80;99.90
15625;DHT22;7912;51.376;6.126;2023-07-31T05:35:40;20.80;99.90
15625;DHT22;7912;51.376;6.126;2023-07-31T05:38:08;20.80;99.90
15625;DHT22;7912;51.376;6.126;2023-07-31T05:40:35;20.80;99.90
15625;DHT22;7912;51.376;6.126;2023-07-31T05:43:02;20.80;99.90
15625;DHT22;7912;51.376;6.126;2023-07-31T05:45:30;20.80;99.90
15625;DHT22;7912;51.376;6.126;2023-07-31T05:47:59;20.80;99.90
15625;DHT22;7912;51.376;6.126;2023-07-31T05:50:26;20.80;99.90
15625;DHT22;7912;51.376;6.126;2023-07-31T05:52:54;20.80;99.90
15625;DHT22;7912;51.376;6.126;2023-07-31T05:55:21;20.80;99.90
15625;DHT22;7912;51.376;6.126;2023-07-31T05:57:49;20.80;99.90
15625;DHT22;7912;51.376;6.126;2023-07-31T06:00:16;20.80;99.90
15625;DHT22;7912;51.376;6.126;2023-07-31T06:02:43;20.80;99.90
15625;DHT22;7912;51.376;6.126;2023-07-31T06:05:11;20.80;99.90
15625;DHT22;7912;51.376;6.126;2023-07-31T06:07:39;20.80;99.90
15625;DHT22;7912;51.376;6.126;2023-07-31T06:10:06;20.70;99.90
15625;DHT22;7912;51.376;6.126;2023-07-31T06:12:35;20.70;99.90
15625;DHT22;7912;51.376;6.126;2023-07-31T06:15:03;20.70;99.90
15625;DHT22;7912;51.376;6.126;2023-07-31T06:17:31;20.70;99.90
15625;DHT22;7912;51.376;6.126;2023-07-31T06:19:59;20.70;99.90
15625;DHT22;7912;51.376;6.126;2023-07-31T06:22:26;20.70;99.90
15625;DHT22;7912;51.376;6.126;2023-07-31T06:24:53;20.70;99.90
15625;DHT22;7912;51.376;6.126;2023-07-31T06:27:21;20.70;99.90
15625;DHT22;7912;51.376;6.126;2023-07-31T06:29:48;20.70;99.90
15625;DHT22;7912;51.376;6.126;2023-07-31T06:32:16;20.70;99.90
15625;DHT22;7912;51.376;6.126;2023-07-31T06:34:43;20.70;99.90
15625;DHT22;7912;51.376;6.126;2023-07-31T06:37:10;20.70;99.90
15625;DHT22;7912;51.376;6.126;2023-07-31T06:39:38;20.60;99.90
15625;DHT22;7912;51.376;6.126;2023-07-31T06:42:06;20.60;99.90
15625;DHT22;7912;51.376;6.126;2023-07-31T06:44:33;20.50;99.90
15625;DHT22;7912;51.376;6.126;2023-07-31T06:47:01;20.50;99.90
15625;DHT22;7912;51.376;6.126;2023-07-31T06:49:28;20.40;99.90
15625;DHT22;7912;51.376;6.126;2023-07-31T06:51:56;20.40;99.90
15625;DHT22;7912;51.376;6.126;2023-07-31T06:54:23;20.40;99.90
15625;DHT22;7912;51.376;6.126;2023-07-31T06:56:51;20.30;99.90
15625;DHT22;7912;51.376;6.126;2023-07-31T06:59:18;20.30;99.90
15625;DHT22;7912;51.376;6.126;2023-07-31T07:01:49;20.20;99.90
15625;DHT22;7912;51.376;6.126;2023-07-31T07:04:16;20.20;99.90
15625;DHT22;7912;51.376;6.126;2023-07-31T07:06:44;20.20;99.90
15625;DHT22;7912;51.376;6.126;2023-07-31T07:09:11;20.20;99.90
15625;DHT22;7912;51.376;6.126;2023-07-31T07:11:42;20.20;99.90
15625;DHT22;7912;51.376;6.126;2023-07-31T07:14:09;20.10;99.90
15625;DHT22;7912;51.376;6.126;2023-07-31T07:16:37;20.10;99.90
15625;DHT22;7912;51.376;6.126;2023-07-31T07:19:05;20.10;99.90
15625;DHT22;7912;51.376;6.126;2023-07-31T07:21:32;20.10;99.90
15625;DHT22;7912;51.376;6.126;2023-07-31T07:24:00;20.10;99.90
15625;DHT22;7912;51.376;6.126;2023-07-31T07:26:29;20.10;99.90
15625;DHT22;7912;51.376;6.126;2023-07-31T07:28:56;20.10;99.90
15625;DHT22;7912;51.376;6.126;2023-07-31T07:31:28;20.10;99.90
15625;DHT22;7912;51.376;6.126;2023-07-31T07:33:55;20.10;99.90
15625;DHT22;7912;51.376;6.126;2023-07-31T07:36:24;20.10;99.90
15625;DHT22;7912;51.376;6.126;2023-07-31T07:38:51;20.10;99.90
15625;DHT22;7912;51.376;6.126;2023-07-31T07:41:18;20.10;99.90
15625;DHT22;7912;51.376;6.126;2023-07-31T07:43:46;20.10;99.90
15625;DHT22;7912;51.376;6.126;2023-07-31T07:46:13;20.00;99.90
15625;DHT22;7912;51.376;6.126;2023-07-31T07:48:41;20.10;99.90
15625;DHT22;7912;51.376;6.126;2023-07-31T07:51:14;20.10;99.90
15625;DHT22;7912;51.376;6.126;2023-07-31T07:53:41;20.10;99.90
15625;DHT22;7912;51.376;6.126;2023-07-31T07:56:10;20.20;99.90
15625;DHT22;7912;51.376;6.126;2023-07-31T07:58:38;20.30;99.90
15625;DHT22;7912;51.376;6.126;2023-07-31T08:01:05;20.40;99.90
15625;DHT22;7912;51.376;6.126;2023-07-31T08:03:33;20.50;99.90
15625;DHT22;7912;51.376;6.126;2023-07-31T08:06:01;20.60;99.90
15625;DHT22;7912;51.376;6.126;2023-07-31T08:08:32;20.70;99.90
15625;DHT22;7912;51.376;6.126;2023-07-31T08:11:02;20.80;99.90
15625;DHT22;7912;51.376;6.126;2023-07-31T08:13:29;20.90;99.90
15625;DHT22;7912;51.376;6.126;2023-07-31T08:15:57;21.00;99.90
15625;DHT22;7912;51.376;6.126;2023-07-31T08:18:27;21.10;99.90
15625;DHT22;7912;51.376;6.126;2023-07-31T08:20:54;21.10;99.90
15625;DHT22;7912;51.376;6.126;2023-07-31T08:23:21;21.10;99.90
15625;DHT22;7912;51.376;6.126;2023-07-31T08:25:51;21.10;99.90
15625;DHT22;7912;51.376;6.126;2023-07-31T08:28:21;21.10;99.90
15625;DHT22;7912;51.376;6.126;2023-07-31T08:30:49;21.10;99.90
15625;DHT22;7912;51.376;6.126;2023-07-31T08:33:17;21.10;99.90
15625;DHT22;7912;51.376;6.126;2023-07-31T08:35:46;21.10;99.90
15625;DHT22;7912;51.376;6.126;2023-07-31T08:38:13;21.10;99.90
15625;DHT22;7912;51.376;6.126;2023-07-31T08:40:41;21.10;99.90
15625;DHT22;7912;51.376;6.126;2023-07-31T08:43:10;21.00;99.90
15625;DHT22;7912;51.376;6.126;2023-07-31T08:45:38;21.00;99.90
15625;DHT22;7912;51.376;6.126;2023-07-31T08:48:09;21.00;99.90
15625;DHT22;7912;51.376;6.126;2023-07-31T08:50:38;21.00;99.90
15625;DHT22;7912;51.376;6.126;2023-07-31T08:53:06;20.90;99.90
15625;DHT22;7912;51.376;6.126;2023-07-31T08:55:34;21.00;99.90
15625;DHT22;7912;51.376;6.126;2023-07-31T08:58:04;21.00;99.90
15625;DHT22;7912;51.376;6.126;2023-07-31T09:00:32;21.00;99.90
15625;DHT22;7912;51.376;6.126;2023-07-31T09:03:14;20.90;99.90
15625;DHT22;7912;51.376;6.126;2023-07-31T09:05:45;21.00;99.90
15625;DHT22;7912;51.376;6.126;2023-07-31T09:08:17;21.00;99.90
15625;DHT22;7912;51.376;6.126;2023-07-31T09:10:47;21.10;99.90
15625;DHT22;7912;51.376;6.126;2023-07-31T09:13:17;21.00;99.90
15625;DHT22;7912;51.376;6.126;2023-07-31T09:15:46;21.10;99.90
15625;DHT22;7912;51.376;6.126;2023-07-31T09:18:14;21.10;99.90
15625;DHT22;7912;51.376;6.126;2023-07-31T09:20:45;21.10;99.90
15625;DHT22;7912;51.376;6.126;2023-07-31T09:23:14;21.10;99.90
15625;DHT22;7912;51.376;6.126;2023-07-31T09:25:46;21.10;99.90
15625;DHT22;7912;51.376;6.126;2023-07-31T09:28:13;21.10;99.90
15625;DHT22;7912;51.376;6.126;2023-07-31T09:30:49;21.10;99.90
15625;DHT22;7912;51.376;6.126;2023-07-31T09:33:18;21.10;99.90
15625;DHT22;7912;51.376;6.126;2023-07-31T09:35:51;21.10;99.90
15625;DHT22;7912;51.376;6.126;2023-07-31T09:38:22;21.10;99.90
15625;DHT22;7912;51.376;6.126;2023-07-31T09:40:51;21.20;99.90
15625;DHT22;7912;51.376;6.126;2023-07-31T09:43:20;21.10;99.90
15625;DHT22;7912;51.376;6.126;2023-07-31T09:45:55;21.20;99.90
15625;DHT22;7912;51.376;6.126;2023-07-31T09:48:24;21.20;99.90
15625;DHT22;7912;51.376;6.126;2023-07-31T09:50:55;21.30;99.90
15625;DHT22;7912;51.376;6.126;2023-07-31T09:53:28;21.30;99.90
15625;DHT22;7912;51.376;6.126;2023-07-31T09:55:59;21.30;99.90
15625;DHT22;7912;51.376;6.126;2023-07-31T09:58:29;21.40;99.90
15625;DHT22;7912;51.376;6.126;2023-07-31T10:01:02;21.50;99.90
15625;DHT22;7912;51.376;6.126;2023-07-31T10:03:31;21.60;99.90
15625;DHT22;7912;51.376;6.126;2023-07-31T10:06:03;21.60;99.90
15625;DHT22;7912;51.376;6.126;2023-07-31T10:08:35;21.70;99.90
15625;DHT22;7912;51.376;6.126;2023-07-31T10:11:04;21.70;99.90
15625;DHT22;7912;51.376;6.126;2023-07-31T10:13:34;21.80;99.90
15625;DHT22;7912;51.376;6.126;2023-07-31T10:16:02;21.90;99.90
15625;DHT22;7912;51.376;6.126;2023-07-31T10:18:31;21.90;99.90
15625;DHT22;7912;51.376;6.126;2023-07-31T10:20:59;21.90;99.90
15625;DHT22;7912;51.376;6.126;2023-07-31T10:23:27;22.00;99.90
15625;DHT22;7912;51.376;6.126;2023-07-31T10:25:57;22.00;99.90
15625;DHT22;7912;51.376;6.126;2023-07-31T10:28:26;22.10;99.90
15625;DHT22;7912;51.376;6.126;2023-07-31T10:30:54;22.10;99.90
15625;DHT22;7912;51.376;6.126;2023-07-31T10:33:23;22.20;99.90
15625;DHT22;7912;51.376;6.126;2023-07-31T10:35:50;22.30;99.90
15625;DHT22;7912;51.376;6.126;2023-07-31T10:38:42;22.30;99.90
15625;DHT22;7912;51.376;6.126;2023-07-31T10:41:10;22.40;99.90
15625;DHT22;7912;51.376;6.126;2023-07-31T10:43:38;22.40;99.90
15625;DHT22;7912;51.376;6.126;2023-07-31T10:46:12;22.40;99.90
15625;DHT22;7912;51.376;6.126;2023-07-31T10:48:41;22.40;99.90
15625;DHT22;7912;51.376;6.126;2023-07-31T10:51:12;22.40;99.90
15625;DHT22;7912;51.376;6.126;2023-07-31T10:53:40;22.40;99.90
15625;DHT22;7912;51.376;6.126;2023-07-31T10:56:10;22.40;99.90
15625;DHT22;7912;51.376;6.126;2023-07-31T10:58:44;22.40;99.90
15625;DHT22;7912;51.376;6.126;2023-07-31T11:01:12;22.40;99.90
15625;DHT22;7912;51.376;6.126;2023-07-31T11:03:46;22.40;99.90
15625;DHT22;7912;51.376;6.126;2023-07-31T11:06:16;22.40;99.90
15625;DHT22;7912;51.376;6.126;2023-07-31T11:08:50;22.40;99.90
15625;DHT22;7912;51.376;6.126;2023-07-31T11:11:19;22.40;99.90
15625;DHT22;7912;51.376;6.126;2023-07-31T11:13:51;22.50;99.90
15625;DHT22;7912;51.376;6.126;2023-07-31T11:16:22;22.50;99.90
15625;DHT22;7912;51.376;6.126;2023-07-31T11:18:52;22.60;99.90
15625;DHT22;7912;51.376;6.126;2023-07-31T11:21:24;22.60;99.90
15625;DHT22;7912;51.376;6.126;2023-07-31T11:23:57;22.70;99.90
15625;DHT22;7912;51.376;6.126;2023-07-31T11:26:27;22.80;99.90
15625;DHT22;7912;51.376;6.126;2023-07-31T11:28:55;22.80;99.90
15625;DHT22;7912;51.376;6.126;2023-07-31T11:31:22;23.00;99.90
15625;DHT22;7912;51.376;6.126;2023-07-31T11:34:04;23.00;99.90
15625;DHT22;7912;51.376;6.126;2023-07-31T11:36:32;23.10;99.90
15625;DHT22;7912;51.376;6.126;2023-07-31T11:39:20;23.10;99.90
15625;DHT22;7912;51.376;6.126;2023-07-31T11:45:59;23.10;99.90
15625;DHT22;7912;51.376;6.126;2023-07-31T11:48:32;23.10;99.90
15625;DHT22;7912;51.376;6.126;2023-07-31T11:51:09;23.10;99.90
15625;DHT22;7912;51.376;6.126;2023-07-31T11:54:01;23.20;99.90
15625;DHT22;7912;51.376;6.126;2023-07-31T11:56:30;23.30;99.90
15625;DHT22;7912;51.376;6.126;2023-07-31T11:58:59;23.30;99.90
15625;DHT22;7912;51.376;6.126;2023-07-31T12:01:29;23.40;99.90
15625;DHT22;7912;51.376;6.126;2023-07-31T12:03:58;23.50;99.90
15625;DHT22;7912;51.376;6.126;2023-07-31T12:06:33;23.50;99.90
15625;DHT22;7912;51.376;6.126;2023-07-31T12:09:06;23.50;99.90
15625;DHT22;7912;51.376;6.126;2023-07-31T12:11:44;23.50;99.90
15625;DHT22;7912;51.376;6.126;2023-07-31T12:14:27;23.60;99.90
15625;DHT22;7912;51.376;6.126;2023-07-31T12:16:59;23.60;99.90
15625;DHT22;7912;51.376;6.126;2023-07-31T12:19:31;23.50;99.90
15625;DHT22;7912;51.376;6.126;2023-07-31T12:22:02;23.50;99.90
15625;DHT22;7912;51.376;6.126;2023-07-31T12:24:44;23.50;99.90
15625;DHT22;7912;51.376;6.126;2023-07-31T12:27:12;23.50;99.90
15625;DHT22;7912;51.376;6.126;2023-07-31T12:29:42;23.50;99.90
15625;DHT22;7912;51.376;6.126;2023-07-31T12:32:23;23.50;99.90
15625;DHT22;7912;51.376;6.126;2023-07-31T12:35:00;23.50;99.90
15625;DHT22;7912;51.376;6.126;2023-07-31T12:37:28;23.50;99.90
15625;DHT22;7912;51.376;6.126;2023-07-31T12:39:56;23.60;99.90
15625;DHT22;7912;51.376;6.126;2023-07-31T12:42:27;23.60;99.90
15625;DHT22;7912;51.376;6.126;2023-07-31T12:44:55;23.60;99.90
15625;DHT22;7912;51.376;6.126;2023-07-31T12:47:22;23.60;99.90
15625;DHT22;7912;51.376;6.126;2023-07-31T12:49:52;23.60;99.90
15625;DHT22;7912;51.376;6.126;2023-07-31T12:52:20;23.60;99.90
15625;DHT22;7912;51.376;6.126;2023-07-31T12:54:48;23.60;99.90
15625;DHT22;7912;51.376;6.126;2023-07-31T12:57:15;23.60;99.90
15625;DHT22;7912;51.376;6.126;2023-07-31T12:59:42;23.60;99.90
15625;DHT22;7912;51.376;6.126;2023-07-31T13:02:13;23.60;99.90
15625;DHT22;7912;51.376;6.126;2023-07-31T13:04:46;23.60;99.90
15625;DHT22;7912;51.376;6.126;2023-07-31T13:07:14;23.60;99.90
15625;DHT22;7912;51.376;6.126;2023-07-31T13:09:41;23.60;99.90
15625;DHT22;7912;51.376;6.126;2023-07-31T13:12:09;23.60;99.90
15625;DHT22;7912;51.376;6.126;2023-07-31T13:14:36;23.60;99.90
15625;DHT22;7912;51.376;6.126;2023-07-31T13:17:03;23.60;99.90
15625;DHT22;7912;51.376;6.126;2023-07-31T13:19:33;23.60;99.90
15625;DHT22;7912;51.376;6.126;2023-07-31T13:22:07;23.60;99.90
15625;DHT22;7912;51.376;6.126;2023-07-31T13:24:35;23.60;99.90
15625;DHT22;7912;51.376;6.126;2023-07-31T13:27:02;23.70;99.90
15625;DHT22;7912;51.376;6.126;2023-07-31T13:29:33;23.70;99.90
15625;DHT22;7912;51.376;6.126;2023-07-31T13:32:04;23.70;99.90
15625;DHT22;7912;51.376;6.126;2023-07-31T13:34:31;23.80;99.90
15625;DHT22;7912;51.376;6.126;2023-07-31T13:37:01;23.80;99.90
15625;DHT22;7912;51.376;6.126;2023-07-31T13:39:32;23.90;99.90
15625;DHT22;7912;51.376;6.126;2023-07-31T13:42:07;24.00;99.90
15625;DHT22;7912;51.376;6.126;2023-07-31T13:44:36;24.00;99.90
15625;DHT22;7912;51.376;6.126;2023-07-31T13:47:06;24.10;99.90
15625;DHT22;7912;51.376;6.126;2023-07-31T13:49:35;24.00;99.90
15625;DHT22;7912;51.376;6.126;2023-07-31T13:52:06;24.10;99.90
15625;DHT22;7912;51.376;6.126;2023-07-31T13:54:37;24.10;99.90
15625;DHT22;7912;51.376;6.126;2023-07-31T13:57:05;24.10;99.90
15625;DHT22;7912;51.376;6.126;2023-07-31T13:59:32;24.10;99.90
15625;DHT22;7912;51.376;6.126;2023-07-31T14:02:05;24.00;99.90
15625;DHT22;7912;51.376;6.126;2023-07-31T14:04:33;24.00;99.90
15625;DHT22;7912;51.376;6.126;2023-07-31T14:07:01;24.00;99.90
15625;DHT22;7912;51.376;6.126;2023-07-31T14:09:33;24.00;99.90
15625;DHT22;7912;51.376;6.126;2023-07-31T14:12:07;24.00;99.90
15625;DHT22;7912;51.376;6.126;2023-07-31T14:14:37;24.00;99.90
15625;DHT22;7912;51.376;6.126;2023-07-31T14:17:07;23.90;99.90
15625;DHT22;7912;51.376;6.126;2023-07-31T14:19:35;23.90;99.90
15625;DHT22;7912;51.376;6.126;2023-07-31T14:22:06;23.80;99.90
15625;DHT22;7912;51.376;6.126;2023-07-31T14:24:38;23.70;99.90
15625;DHT22;7912;51.376;6.126;2023-07-31T14:27:06;23.70;99.90
15625;DHT22;7912;51.376;6.126;2023-07-31T14:29:37;23.60;99.90
15625;DHT22;7912;51.376;6.126;2023-07-31T14:32:04;23.60;99.90
15625;DHT22;7912;51.376;6.126;2023-07-31T14:34:32;23.50;99.90
15625;DHT22;7912;51.376;6.126;2023-07-31T14:36:59;23.50;99.90
15625;DHT22;7912;51.376;6.126;2023-07-31T14:39:27;23.50;99.90
15625;DHT22;7912;51.376;6.126;2023-07-31T14:41:55;23.40;99.90
15625;DHT22;7912;51.376;6.126;2023-07-31T14:44:22;23.40;99.90
15625;DHT22;7912;51.376;6.126;2023-07-31T14:46:50;23.40;99.90
15625;DHT22;7912;51.376;6.126;2023-07-31T14:53:23;23.30;99.90
15625;DHT22;7912;51.376;6.126;2023-07-31T14:55:51;23.30;99.90
15625;DHT22;7912;51.376;6.126;2023-07-31T14:58:19;23.30;99.90
15625;DHT22;7912;51.376;6.126;2023-07-31T15:00:48;23.30;99.90
15625;DHT22;7912;51.376;6.126;2023-07-31T15:03:18;23.30;99.90
15625;DHT22;7912;51.376;6.126;2023-07-31T15:05:47;23.30;99.90
15625;DHT22;7912;51.376;6.126;2023-07-31T15:08:23;23.30;99.90
15625;DHT22;7912;51.376;6.126;2023-07-31T15:10:57;23.30;99.90
15625;DHT22;7912;51.376;6.126;2023-07-31T15:13:35;23.30;99.90
15625;DHT22;7912;51.376;6.126;2023-07-31T15:20:36;23.20;99.90
15625;DHT22;7912;51.376;6.126;2023-07-31T15:23:26;23.10;99.90
15625;DHT22;7912;51.376;6.126;2023-07-31T15:25:56;23.00;99.90
15625;DHT22;7912;51.376;6.126;2023-07-31T15:28:25;23.00;99.90
15625;DHT22;7912;51.376;6.126;2023-07-31T15:31:04;22.80;99.90
15625;DHT22;7912;51.376;6.126;2023-07-31T15:33:31;22.80;99.90
15625;DHT22;7912;51.376;6.126;2023-07-31T15:35:59;22.70;99.90
15625;DHT22;7912;51.376;6.126;2023-07-31T15:38:29;22.60;99.90
15625;DHT22;7912;51.376;6.126;2023-07-31T15:40:56;22.50;99.90
15625;DHT22;7912;51.376;6.126;2023-07-31T15:43:24;22.40;99.90
15625;DHT22;7912;51.376;6.126;2023-07-31T15:45:52;22.30;99.90
15625;DHT22;7912;51.376;6.126;2023-07-31T15:48:20;22.30;99.90
15625;DHT22;7912;51.376;6.126;2023-07-31T15:50:50;22.20;99.90
15625;DHT22;7912;51.376;6.126;2023-07-31T15:53:18;22.20;99.90
15625;DHT22;7912;51.376;6.126;2023-07-31T15:55:45;22.20;99.90
15625;DHT22;7912;51.376;6.126;2023-07-31T15:58:12;22.10;99.90
15625;DHT22;7912;51.376;6.126;2023-07-31T16:00:43;22.10;99.90
15625;DHT22;7912;51.376;6.126;2023-07-31T16:03:13;22.10;99.90
15625;DHT22;7912;51.376;6.126;2023-07-31T16:05:44;22.10;99.90
15625;DHT22;7912;51.376;6.126;2023-07-31T16:08:11;22.00;99.90
15625;DHT22;7912;51.376;6.126;2023-07-31T16:10:39;22.00;99.90
15625;DHT22;7912;51.376;6.126;2023-07-31T16:13:07;22.00;99.90
15625;DHT22;7912;51.376;6.126;2023-07-31T16:15:35;22.00;99.90